Time;durP1;ratioP1;P1;durP2;ratioP2;P2;SDS_P1;SDS_P2;PMS_P1;PMS_P2;Temp;Humidity;BMP_temperature;BMP_pressure;BME280_temperature;BME280_humidity;BME280_pressure;Samples;Min_cycle;Max_cycle;Signal;HPM_P1;HPM_P2
2023/06/28 00:01:00;;;;;;;;;;;;;;;16.06;94.79;101903.78;5095942;28;19922;-57
2023/06/28 00:03:25;;;;;;;;;;;;;;;16.04;94.92;101907.19;5103356;28;19916;-57
2023/06/28 00:05:50;;;;;;;;;;;;;;;16.03;91.65;101910.63;5101753;28;19923;-57
2023/06/28 00:08:15;;;;;;;;;;;;;;;16.04;92.19;101905.47;5104392;28;19920;-57
2023/06/28 00:10:41;;;;;;;;;;;;;;;16.06;94.38;101903.78;5092703;28;19927;-58
2023/06/28 00:13:06;;;;;;;;;;;;;;;16.05;94.09;101906.34;5104568;28;19968;-56
2023/06/28 00:15:31;;;;;;;;;;;;;;;16.04;94.27;101902.88;5099462;28;20378;-58
2023/06/28 00:17:56;;;;;;;;;;;;;;;16.03;91.37;101895.06;5101376;28;19924;-57
2023/06/28 00:20:21;;;;;;;;;;;;;;;16.04;88.66;101910.66;5098606;28;19916;-57
2023/06/28 00:22:47;;;;;;;;;;;;;;;16.03;93.72;101906.31;5096442;28;19920;-58
2023/06/28 00:25:12;;;;;;;;;;;;;;;16.04;93.08;101902.88;5088641;28;19928;-57
2023/06/28 00:27:37;;;;;;;;;;;;;;;16.07;92.93;101902.91;5087020;28;20302;-57
2023/06/28 00:30:03;;;;;;;;;;;;;;;16.06;92.54;101901.19;5103415;28;19916;-57
2023/06/28 00:32:28;;;;;;;;;;;;;;;16.05;90.90;101899.44;5092076;28;19924;-47
2023/06/28 00:34:53;;;;;;;;;;;;;;;16.05;93.39;101917.59;5092833;28;20281;-46
2023/06/28 00:37:19;;;;;;;;;;;;;;;16.06;91.97;101914.16;5095914;28;19962;-46
2023/06/28 00:39:44;;;;;;;;;;;;;;;16.06;93.18;101910.69;5099537;28;19927;-45
2023/06/28 00:42:09;;;;;;;;;;;;;;;16.05;94.71;101911.53;5097291;28;19923;-47
2023/06/28 00:44:37;;;;;;;;;;;;;;;16.01;94.90;101918.34;5101064;28;19927;-44
2023/06/28 00:47:04;;;;;;;;;;;;;;;16.02;96.37;101911.47;5097049;28;20433;-44
2023/06/28 00:49:31;;;;;;;;;;;;;;;16.02;95.51;101922.72;5101611;28;19998;-46
2023/06/28 00:51:56;;;;;;;;;;;;;;;16.00;95.97;101915.72;5102504;28;20003;-46
2023/06/28 00:54:22;;;;;;;;;;;;;;;15.97;96.11;101910.50;5103459;28;20007;-47
2023/06/28 00:56:48;;;;;;;;;;;;;;;15.97;95.26;101915.69;5099005;28;19916;-44
2023/06/28 00:59:17;;;;;;;;;;;;;;;15.96;97.16;101917.41;5098873;28;19912;-46
2023/06/28 01:01:42;;;;;;;;;;;;;;;15.91;93.86;101911.22;5103868;28;19930;-44
2023/06/28 01:04:07;;;;;;;;;;;;;;;15.92;93.66;101914.69;5097346;28;19916;-47
2023/06/28 01:06:37;;;;;;;;;;;;;;;15.92;93.99;101912.09;5100856;28;19912;-48
2023/06/28 01:09:09;;;;;;;;;;;;;;;15.91;94.35;101916.41;5096879;28;19969;-44
2023/06/28 01:11:34;;;;;;;;;;;;;;;15.92;93.90;101910.38;5103846;28;19935;-47
2023/06/28 01:14:00;;;;;;;;;;;;;;;15.91;92.82;101910.34;5095271;28;20286;-44
2023/06/28 01:16:26;;;;;;;;;;;;;;;15.92;93.66;101907.78;5098102;28;20339;-44
2023/06/28 01:18:51;;;;;;;;;;;;;;;15.91;94.75;101913.81;5090857;28;19962;-47
2023/06/28 01:21:17;;;;;;;;;;;;;;;15.92;95.63;101906.91;5090078;28;20283;-45
2023/06/28 01:23:44;;;;;;;;;;;;;;;15.90;94.89;101903.41;5091140;28;19967;-46
2023/06/28 01:26:11;;;;;;;;;;;;;;;15.89;94.19;101901.63;5102146;27;19920;-45
2023/06/28 01:28:37;;;;;;;;;;;;;;;15.89;95.18;101910.28;5097453;28;19927;-47
2023/06/28 01:31:03;;;;;;;;;;;;;;;15.88;95.56;101905.06;5110161;27;19919;-58
2023/06/28 01:33:28;;;;;;;;;;;;;;;15.88;95.00;101903.34;5095604;28;20374;-57
2023/06/28 01:35:54;;;;;;;;;;;;;;;15.87;95.82;101904.19;5101643;28;19919;-58
2023/06/28 01:38:19;;;;;;;;;;;;;;;15.86;98.09;101896.41;5098457;28;20263;-57
2023/06/28 01:40:45;;;;;;;;;;;;;;;15.85;98.88;101899.84;5121521;27;19964;-58
2023/06/28 01:43:10;;;;;;;;;;;;;;;15.84;99.83;101904.16;5103720;27;19960;-58
2023/06/28 01:45:36;;;;;;;;;;;;;;;15.81;100.00;101899.75;5114868;27;20029;-57
2023/06/28 01:48:02;;;;;;;;;;;;;;;15.79;100.00;101905.75;5094721;28;19916;-56
2023/06/28 01:50:28;;;;;;;;;;;;;;;15.77;100.00;101903.13;5117862;27;19922;-58
2023/06/28 01:52:55;;;;;;;;;;;;;;;15.76;100.00;101901.34;5119168;27;19931;-58
2023/06/28 01:55:20;;;;;;;;;;;;;;;15.76;100.00;101896.16;5109396;28;19915;-58
2023/06/28 01:57:45;;;;;;;;;;;;;;;15.78;100.00;101899.69;5115173;27;20141;-58
2023/06/28 02:00:11;;;;;;;;;;;;;;;15.80;100.00;101897.13;5120010;27;19912;-57
2023/06/28 02:02:36;;;;;;;;;;;;;;;15.80;100.00;101892.81;5118628;27;19977;-58
2023/06/28 02:05:02;;;;;;;;;;;;;;;15.78;100.00;101899.69;5105698;27;19927;-58
2023/06/28 02:07:27;;;;;;;;;;;;;;;15.78;99.27;101891.03;5091209;28;19916;-58
2023/06/28 02:09:52;;;;;;;;;;;;;;;15.78;99.01;101891.03;5109493;27;19985;-58
2023/06/28 02:12:18;;;;;;;;;;;;;;;15.76;100.00;101897.88;5110725;27;19916;-57
2023/06/28 02:14:43;;;;;;;;;;;;;;;15.73;97.38;101890.06;5110539;28;19926;-57
2023/06/28 02:17:14;;;;;;;;;;;;;;;15.71;98.17;101883.94;5111387;28;20374;-58
2023/06/28 02:19:40;;;;;;;;;;;;;;;15.70;96.44;101884.78;5109847;28;20377;-58
2023/06/28 02:22:05;;;;;;;;;;;;;;;15.67;93.33;101884.72;5119417;27;19941;-58
2023/06/28 02:24:30;;;;;;;;;;;;;;;15.65;91.94;101884.69;5097310;28;20014;-58
2023/06/28 02:26:55;;;;;;;;;;;;;;;15.65;93.14;101883.78;5084373;28;19981;-59
2023/06/28 02:29:21;;;;;;;;;;;;;;;15.63;92.79;101872.53;5096201;28;19916;-58
2023/06/28 02:31:46;;;;;;;;;;;;;;;15.62;91.25;101866.47;5075785;28;19920;-56
2023/06/28 02:34:11;;;;;;;;;;;;;;;15.59;93.84;101879.31;5092311;28;19966;-58
2023/06/28 02:36:37;;;;;;;;;;;;;;;15.57;95.71;101881.88;5095425;28;19919;-58
2023/06/28 02:39:02;;;;;;;;;;;;;;;15.54;97.01;101873.16;5097076;28;19963;-58
2023/06/28 02:41:27;;;;;;;;;;;;;;;15.50;96.01;101872.19;5099657;28;19916;-58
2023/06/28 02:43:53;;;;;;;;;;;;;;;15.46;97.52;101872.94;5087907;28;19927;-58
2023/06/28 02:46:18;;;;;;;;;;;;;;;15.42;97.69;101878.06;5095450;28;19916;-58
2023/06/28 02:48:43;;;;;;;;;;;;;;;15.39;93.90;101870.19;5101515;28;19916;-58
2023/06/28 02:51:09;;;;;;;;;;;;;;;15.39;96.77;101875.38;5101444;28;19923;-58
2023/06/28 02:53:34;;;;;;;;;;;;;;;15.38;97.00;101876.22;5106314;28;19965;-58
2023/06/28 02:55:59;;;;;;;;;;;;;;;15.36;95.33;101878.78;5108376;28;20430;-57
2023/06/28 02:58:24;;;;;;;;;;;;;;;15.37;98.79;101877.94;5101390;28;19916;-57
2023/06/28 03:00:50;;;;;;;;;;;;;;;15.32;98.37;101870.88;5098944;28;20027;-58
2023/06/28 03:03:15;;;;;;;;;;;;;;;15.29;95.04;101874.28;5107250;28;20457;-57
2023/06/28 03:05:41;;;;;;;;;;;;;;;15.25;98.54;101867.25;5106356;28;19931;-58
2023/06/28 03:08:06;;;;;;;;;;;;;;;15.23;100.00;101876.72;5101291;28;19966;-58
2023/06/28 03:10:31;;;;;;;;;;;;;;;15.20;99.46;101876.63;5100158;28;19963;-58
2023/06/28 03:12:57;;;;;;;;;;;;;;;15.18;95.83;101880.91;5100568;28;19919;-58
2023/06/28 03:15:22;;;;;;;;;;;;;;;15.16;100.00;101874.78;5102157;28;19922;-58
2023/06/28 03:17:47;;;;;;;;;;;;;;;15.10;100.00;101874.63;5107525;28;20015;-58
2023/06/28 03:20:13;;;;;;;;;;;;;;;15.06;95.14;101871.09;5107681;28;19927;-58
2023/06/28 03:22:38;;;;;;;;;;;;;;;15.06;99.67;101871.09;5105858;28;20015;-57
2023/06/28 03:25:04;;;;;;;;;;;;;;;15.02;100.00;101867.53;5094444;28;19939;-58
2023/06/28 03:27:29;;;;;;;;;;;;;;;15.01;100.00;101862.34;5084759;28;19927;-59
2023/06/28 03:29:54;;;;;;;;;;;;;;;14.99;100.00;101859.72;5086276;28;19915;-58
2023/06/28 03:32:19;;;;;;;;;;;;;;;14.97;100.00;101861.38;5088325;28;19920;-58
2023/06/28 03:34:45;;;;;;;;;;;;;;;14.97;100.00;101856.19;5093153;28;19969;-58
2023/06/28 03:37:13;;;;;;;;;;;;;;;15.01;100.00;101863.22;5103157;28;20577;-57
2023/06/28 03:39:38;;;;;;;;;;;;;;;15.01;99.85;101862.34;5105084;28;19998;-57
2023/06/28 03:42:03;;;;;;;;;;;;;;;15.03;100.00;101861.53;5095718;28;20400;-58
2023/06/28 03:44:29;;;;;;;;;;;;;;;15.04;100.00;101859.81;5108482;28;20614;-59
2023/06/28 03:46:54;;;;;;;;;;;;;;;15.02;100.00;101857.19;5105478;28;19916;-57
2023/06/28 03:49:19;;;;;;;;;;;;;;;15.00;100.00;101864.06;5098123;28;19920;-58
2023/06/28 03:51:44;;;;;;;;;;;;;;;14.98;100.00;101863.13;5110421;28;19916;-57
2023/06/28 03:54:09;;;;;;;;;;;;;;;14.97;100.00;101856.19;5107777;28;20029;-58
2023/06/28 03:56:35;;;;;;;;;;;;;;;14.97;100.00;101852.72;5105080;28;20396;-57
2023/06/28 03:59:00;;;;;;;;;;;;;;;15.00;100.00;101863.19;5104606;28;19916;-57
2023/06/28 04:01:25;;;;;;;;;;;;;;;14.98;100.00;101868.28;5080318;28;19927;-57
2023/06/28 04:03:51;;;;;;;;;;;;;;;14.98;100.00;101860.53;5105341;28;20428;-57
2023/06/28 04:06:16;;;;;;;;;;;;;;;14.98;100.00;101863.13;5107212;28;19957;-58
2023/06/28 04:08:44;;;;;;;;;;;;;;;15.00;100.00;101856.28;5102874;28;19917;-57
2023/06/28 04:11:09;;;;;;;;;;;;;;;14.99;100.00;101853.66;5106440;28;19923;-58
2023/06/28 04:13:34;;;;;;;;;;;;;;;14.99;100.00;101851.94;5090261;28;19916;-57
2023/06/28 04:15:59;;;;;;;;;;;;;;;14.99;100.00;101853.66;5100974;28;19920;-59
2023/06/28 04:18:25;;;;;;;;;;;;;;;15.01;100.00;101852.84;5082945;28;20423;-58
2023/06/28 04:20:50;;;;;;;;;;;;;;;15.00;100.00;101848.50;5090567;28;20314;-58
2023/06/28 04:23:15;;;;;;;;;;;;;;;14.99;100.00;101849.34;5099190;28;19971;-58
2023/06/28 04:25:40;;;;;;;;;;;;;;;14.95;100.00;101846.63;5098360;28;20015;-58
2023/06/28 04:28:06;;;;;;;;;;;;;;;14.94;100.00;101850.94;5099071;28;20393;-58
2023/06/28 04:30:32;;;;;;;;;;;;;;;14.95;100.00;101863.06;5104957;28;20323;-58
2023/06/28 04:32:57;;;;;;;;;;;;;;;14.96;100.00;101857.03;5100152;28;19916;-58
2023/06/28 04:35:22;;;;;;;;;;;;;;;14.97;100.00;101855.31;5094307;28;19954;-58
2023/06/28 04:37:48;;;;;;;;;;;;;;;14.99;100.00;101853.66;5106542;28;20379;-57
2023/06/28 04:40:13;;;;;;;;;;;;;;;15.00;100.00;101856.28;5103160;28;19925;-58
2023/06/28 04:42:38;;;;;;;;;;;;;;;15.02;100.00;101854.59;5105337;28;19915;-58
2023/06/28 04:45:06;;;;;;;;;;;;;;;15.06;100.00;101858.16;5108103;28;19923;-45
2023/06/28 04:47:31;;;;;;;;;;;;;;;15.08;100.00;101868.56;5101337;28;19923;-44
2023/06/28 04:49:56;;;;;;;;;;;;;;;15.09;100.00;101858.22;5102873;28;19924;-45
2023/06/28 04:52:23;;;;;;;;;;;;;;;15.12;100.00;101862.63;5099001;28;19916;-46
2023/06/28 04:54:48;;;;;;;;;;;;;;;15.12;100.00;101860.91;5101574;28;19935;-44
2023/06/28 04:57:15;;;;;;;;;;;;;;;15.15;100.00;101866.16;5088198;28;20199;-44
2023/06/28 04:59:40;;;;;;;;;;;;;;;15.16;100.00;101869.59;5080720;28;19920;-47
2023/06/28 05:02:05;;;;;;;;;;;;;;;15.19;100.00;101861.94;5098983;28;19912;-46
2023/06/28 05:04:33;;;;;;;;;;;;;;;15.16;100.00;101857.53;5090384;28;20011;-45
2023/06/28 05:07:03;;;;;;;;;;;;;;;15.21;100.00;101865.44;5084423;28;19924;-47
2023/06/28 05:09:28;;;;;;;;;;;;;;;15.21;100.00;101860.25;5092374;28;19916;-44
2023/06/28 05:11:53;;;;;;;;;;;;;;;15.21;100.00;101853.34;5089758;28;19926;-44
2023/06/28 05:14:19;;;;;;;;;;;;;;;15.24;100.00;101856.03;5092210;28;19917;-44
2023/06/28 05:16:44;;;;;;;;;;;;;;;15.28;100.00;101855.25;5090300;28;20290;-58
2023/06/28 05:19:10;;;;;;;;;;;;;;;15.25;100.00;101855.19;5091086;28;20050;-57
2023/06/28 05:21:35;;;;;;;;;;;;;;;15.27;100.00;101857.81;5094911;28;19959;-58
2023/06/28 05:24:00;;;;;;;;;;;;;;;15.25;100.00;101855.19;5100949;28;19965;-57
2023/06/28 05:26:25;;;;;;;;;;;;;;;15.25;100.00;101844.81;5105319;27;19928;-57
2023/06/28 05:28:51;;;;;;;;;;;;;;;15.28;100.00;101855.25;5116170;27;19919;-58
2023/06/28 05:31:16;;;;;;;;;;;;;;;15.30;100.00;101844.94;5086260;28;19920;-58
2023/06/28 05:33:41;;;;;;;;;;;;;;;15.34;100.00;101843.28;5095090;28;19916;-58
2023/06/28 05:36:07;;;;;;;;;;;;;;;15.37;100.00;101854.59;5102578;27;19965;-62
2023/06/28 05:38:32;;;;;;;;;;;;;;;15.41;100.00;101846.06;5112682;27;19948;-58
2023/06/28 05:41:10;;;;;;;;;;;;;;;15.45;100.00;101847.00;5111846;27;19920;-58
2023/06/28 05:43:35;;;;;;;;;;;;;;;15.51;100.00;101848.03;5084601;28;19918;-58
2023/06/28 05:46:00;;;;;;;;;;;;;;;15.51;100.00;101850.63;5101426;28;19916;-58
2023/06/28 05:48:26;;;;;;;;;;;;;;;15.52;100.00;101852.38;5109689;27;19923;-58
2023/06/28 05:50:51;;;;;;;;;;;;;;;15.54;100.00;101847.25;5109863;28;19915;-57
2023/06/28 05:53:16;;;;;;;;;;;;;;;15.59;100.00;101847.31;5084722;28;20329;-58
2023/06/28 05:55:41;;;;;;;;;;;;;;;15.61;100.00;101845.66;5104975;28;20285;-58
2023/06/28 05:58:07;;;;;;;;;;;;;;;15.64;100.00;101851.81;5098279;28;19966;-59
2023/06/28 06:00:32;;;;;;;;;;;;;;;15.66;100.00;101854.47;5099248;28;19969;-58
2023/06/28 06:02:57;;;;;;;;;;;;;;;15.65;100.00;101855.28;5109103;28;19920;-58
2023/06/28 06:05:22;;;;;;;;;;;;;;;15.66;100.00;101851.88;5099867;28;19920;-58
2023/06/28 06:07:47;;;;;;;;;;;;;;;15.68;100.00;101851.03;5104409;28;19920;-59
2023/06/28 06:10:13;;;;;;;;;;;;;;;15.72;100.00;101852.00;5094350;28;20010;-58
2023/06/28 06:12:39;;;;;;;;;;;;;;;15.74;100.00;101848.59;5104629;28;20380;-58
2023/06/28 06:15:05;;;;;;;;;;;;;;;15.77;100.00;101848.69;5106716;27;19919;-58
2023/06/28 06:17:30;;;;;;;;;;;;;;;15.76;100.00;101846.91;5100226;28;19964;-58
2023/06/28 06:19:55;;;;;;;;;;;;;;;15.77;100.00;101840.00;5104137;28;20275;-59
2023/06/28 06:22:21;;;;;;;;;;;;;;;15.79;100.00;101843.53;5112751;27;19916;-58
2023/06/28 06:24:46;;;;;;;;;;;;;;;15.84;100.00;101830.66;5097615;28;19931;-58
2023/06/28 06:27:11;;;;;;;;;;;;;;;15.90;100.00;101830.78;5092362;28;19929;-59
2023/06/28 06:29:36;;;;;;;;;;;;;;;15.97;100.00;101832.66;5098299;28;19924;-58
2023/06/28 06:32:02;;;;;;;;;;;;;;;16.01;100.00;101830.16;5100913;28;20378;-58
2023/06/28 06:34:27;;;;;;;;;;;;;;;16.03;100.00;101832.78;5095278;28;19916;-58
2023/06/28 06:36:54;;;;;;;;;;;;;;;16.03;100.00;101833.66;5102877;28;19922;-59
2023/06/28 06:39:20;;;;;;;;;;;;;;;16.02;100.00;101831.06;5093979;28;20298;-59
2023/06/28 06:41:45;;;;;;;;;;;;;;;16.04;100.00;101840.59;5086087;28;19916;-59
2023/06/28 06:44:10;;;;;;;;;;;;;;;16.03;100.00;101838.88;5091670;28;20494;-58
2023/06/28 06:46:36;;;;;;;;;;;;;;;16.08;100.00;101838.97;5092460;28;20323;-58
2023/06/28 06:49:01;;;;;;;;;;;;;;;16.06;100.00;101841.50;5097374;28;20466;-58
2023/06/28 06:51:26;;;;;;;;;;;;;;;16.08;100.00;101846.75;5089542;28;19927;-60
2023/06/28 06:53:52;;;;;;;;;;;;;;;16.12;100.00;101845.06;5079772;28;19916;-59
2023/06/28 06:56:21;;;;;;;;;;;;;;;16.16;100.00;101845.19;5091405;28;20010;-59
2023/06/28 06:58:46;;;;;;;;;;;;;;;16.19;100.00;101852.13;5105892;28;19915;-59
2023/06/28 07:01:11;;;;;;;;;;;;;;;16.22;100.00;101847.91;5090440;28;20004;-58
2023/06/28 07:03:37;;;;;;;;;;;;;;;16.22;100.00;101853.09;5090137;28;19955;-59
2023/06/28 07:06:02;;;;;;;;;;;;;;;16.22;100.00;101855.69;5105019;28;20362;-60
2023/06/28 07:08:27;;;;;;;;;;;;;;;16.24;100.00;101853.13;5099254;28;20295;-59
2023/06/28 07:10:52;;;;;;;;;;;;;;;16.25;100.00;101852.25;5074689;28;20007;-59
2023/06/28 07:13:18;;;;;;;;;;;;;;;16.23;100.00;101854.84;5094004;28;20325;-59
2023/06/28 07:15:43;;;;;;;;;;;;;;;16.23;100.00;101859.16;5096311;28;20344;-59
2023/06/28 07:18:08;;;;;;;;;;;;;;;16.27;100.00;101861.84;5086384;28;19916;-59
2023/06/28 07:20:33;;;;;;;;;;;;;;;16.30;100.00;101858.44;5085489;28;19916;-59
2023/06/28 07:22:59;;;;;;;;;;;;;;;16.34;100.00;101865.44;5078391;28;20669;-61
2023/06/28 07:25:24;;;;;;;;;;;;;;;16.38;100.00;101869.88;5083602;28;19931;-59
2023/06/28 07:27:50;;;;;;;;;;;;;;;16.43;100.00;101864.75;5105742;28;19978;-59
2023/06/28 07:30:16;;;;;;;;;;;;;;;16.46;100.00;101877.78;5100196;28;19958;-59
2023/06/28 07:32:41;;;;;;;;;;;;;;;16.49;100.00;101870.94;5093645;28;20390;-60
2023/06/28 07:35:07;;;;;;;;;;;;;;;16.52;100.00;101867.53;5086381;28;20016;-60
2023/06/28 07:37:32;;;;;;;;;;;;;;;16.54;100.00;101860.63;5090285;28;19923;-59
2023/06/28 07:39:58;;;;;;;;;;;;;;;16.59;100.00;101859.00;5106566;28;19965;-60
2023/06/28 07:42:23;;;;;;;;;;;;;;;16.68;100.00;101858.28;5085100;28;19959;-59
2023/06/28 07:44:49;;;;;;;;;;;;;;;16.77;100.00;101855.91;5089543;28;20017;-59
2023/06/28 07:47:14;;;;;;;;;;;;;;;16.84;100.00;101855.19;5094113;28;19963;-59
2023/06/28 07:49:39;;;;;;;;;;;;;;;16.91;100.00;101854.44;5106270;28;20010;-59
2023/06/28 07:52:05;;;;;;;;;;;;;;;16.96;100.00;101862.31;5106845;28;20072;-60
2023/06/28 07:54:30;;;;;;;;;;;;;;;17.01;100.00;101866.75;5106909;28;20386;-58
2023/06/28 07:56:56;;;;;;;;;;;;;;;17.01;100.00;101850.28;5097919;28;19920;-60
2023/06/28 07:59:21;;;;;;;;;;;;;;;17.04;100.00;101864.19;5102544;28;20022;-61
2023/06/28 08:01:47;;;;;;;;;;;;;;;17.10;100.00;101856.50;5099941;28;20074;-59
2023/06/28 08:04:15;;;;;;;;;;;;;;;17.14;100.00;101853.13;5096678;28;19955;-59
2023/06/28 08:06:41;;;;;;;;;;;;;;;17.23;100.00;101861.91;5094439;28;19917;-59
2023/06/28 08:09:06;;;;;;;;;;;;;;;17.31;100.00;101862.94;5102798;28;19922;-58
2023/06/28 08:11:31;;;;;;;;;;;;;;;17.36;100.00;101859.56;5100467;28;19920;-59
2023/06/28 08:13:56;;;;;;;;;;;;;;;17.41;99.58;101852.72;5104273;28;19957;-60
2023/06/28 08:16:22;;;;;;;;;;;;;;;17.47;99.62;101846.69;5104330;28;19922;-59
2023/06/28 08:18:47;;;;;;;;;;;;;;;17.54;97.72;101858.97;5105487;28;20022;-60
2023/06/28 08:21:13;;;;;;;;;;;;;;;17.58;96.64;101859.88;5087419;28;20035;-59
2023/06/28 08:23:38;;;;;;;;;;;;;;;17.56;95.80;101852.06;5100767;28;19916;-60
2023/06/28 08:26:04;;;;;;;;;;;;;;;17.61;96.67;101855.59;5091710;28;19931;-59
2023/06/28 08:28:29;;;;;;;;;;;;;;;17.68;95.42;101861.75;5105788;28;19977;-59
2023/06/28 08:30:54;;;;;;;;;;;;;;;17.73;95.59;101860.16;5106842;28;20426;-60
2023/06/28 08:33:21;;;;;;;;;;;;;;;17.77;93.97;101864.53;5099315;28;20363;-59
2023/06/28 08:35:46;;;;;;;;;;;;;;;17.80;94.55;101868.91;5101704;28;19915;-59
2023/06/28 08:38:11;;;;;;;;;;;;;;;17.80;94.71;101868.91;5106713;28;19923;-60
2023/06/28 08:40:37;;;;;;;;;;;;;;;17.81;93.49;101873.25;5103043;28;20014;-59
2023/06/28 08:43:02;;;;;;;;;;;;;;;17.80;94.31;101874.97;5076353;28;19915;-59
2023/06/28 08:45:30;;;;;;;;;;;;;;;17.83;93.73;101876.75;5085983;28;19967;-59
2023/06/28 08:47:56;;;;;;;;;;;;;;;17.86;93.64;101872.47;5095126;28;20003;-59
2023/06/28 08:50:22;;;;;;;;;;;;;;;17.86;93.53;101869.88;5098839;28;20053;-60
2023/06/28 08:52:49;;;;;;;;;;;;;;;17.88;93.52;101870.75;5107442;28;20366;-59
2023/06/28 08:55:14;;;;;;;;;;;;;;;17.93;93.06;101868.22;5102195;28;19915;-58
2023/06/28 08:57:40;;;;;;;;;;;;;;;17.97;92.02;101867.41;5099632;28;19957;-59
2023/06/28 09:00:08;;;;;;;;;;;;;;;18.00;90.89;101856.16;5093941;28;20021;-60
2023/06/28 09:02:34;;;;;;;;;;;;;;;18.01;90.33;101866.59;5106685;28;19916;-59
2023/06/28 09:04:59;;;;;;;;;;;;;;;18.10;90.37;101858.03;5095598;28;20520;-59
2023/06/28 09:07:24;;;;;;;;;;;;;;;18.21;89.58;101861.66;5084321;28;19919;-59
2023/06/28 09:09:51;;;;;;;;;;;;;;;18.33;89.48;101858.34;5100875;28;20289;-60
2023/06/28 09:12:16;;;;;;;;;;;;;;;18.42;89.12;101854.09;5099792;28;19912;-59
2023/06/28 09:14:41;;;;;;;;;;;;;;;18.51;87.32;101861.16;5098833;28;19919;-60
2023/06/28 09:17:07;;;;;;;;;;;;;;;18.57;87.66;101861.22;5106872;28;19973;-59
2023/06/28 09:19:32;;;;;;;;;;;;;;;18.66;88.63;101856.09;5100761;28;19912;-59
2023/06/28 09:22:08;;;;;;;;;;;;;;;18.75;87.73;101855.38;5102786;28;19923;-59
2023/06/28 09:24:34;;;;;;;;;;;;;;;18.80;86.62;101860.59;5107080;28;20002;-59
2023/06/28 09:27:03;;;;;;;;;;;;;;;18.80;85.51;101853.66;5110736;27;20052;-59
2023/06/28 09:29:29;;;;;;;;;;;;;;;18.82;84.61;101864.13;5115098;27;20324;-59
2023/06/28 09:31:54;;;;;;;;;;;;;;;18.78;85.31;101857.13;5102373;28;19973;-60
2023/06/28 09:34:23;;;;;;;;;;;;;;;18.82;85.53;101859.78;5098758;28;20232;-60
2023/06/28 09:36:54;;;;;;;;;;;;;;;18.89;86.07;101856.38;5105620;27;20393;-59
2023/06/28 09:39:20;;;;;;;;;;;;;;;19.06;84.26;101859.13;5120306;27;19911;-59
2023/06/28 09:41:45;;;;;;;;;;;;;;;19.15;84.13;101864.41;5101712;28;19911;-59
2023/06/28 09:44:11;;;;;;;;;;;;;;;19.27;83.47;101861.03;5089216;28;19924;-59
2023/06/28 09:46:43;;;;;;;;;;;;;;;19.39;83.15;101863.75;5097384;28;19920;-59
2023/06/28 09:49:18;;;;;;;;;;;;;;;19.48;82.08;101858.63;5103058;28;19973;-59
2023/06/28 09:51:43;;;;;;;;;;;;;;;19.66;82.47;101852.69;5114604;27;19911;-60
2023/06/28 09:54:09;;;;;;;;;;;;;;;19.82;79.32;101844.06;5103266;27;19941;-59
2023/06/28 09:56:35;;;;;;;;;;;;;;;20.02;79.98;101852.00;5085418;27;20008;-59
2023/06/28 09:59:07;;;;;;;;;;;;;;;20.23;80.46;101837.28;5110102;28;19930;-60
2023/06/28 10:01:38;;;;;;;;;;;;;;;20.52;79.85;101838.28;5115772;27;19915;-60
2023/06/28 10:04:05;;;;;;;;;;;;;;;20.88;76.02;101847.06;5117834;27;19924;-59
2023/06/28 10:06:33;;;;;;;;;;;;;;;21.15;77.01;101843.59;5108080;28;20030;-60
2023/06/28 10:08:59;;;;;;;;;;;;;;;21.33;75.32;101846.22;5111440;27;19915;-59
2023/06/28 10:11:24;;;;;;;;;;;;;;;21.56;75.82;101838.34;5110113;27;19916;-59
2023/06/28 10:13:50;;;;;;;;;;;;;;;21.87;71.37;101843.50;5117582;27;19976;-59
2023/06/28 10:16:17;;;;;;;;;;;;;;;21.95;69.45;101833.88;5096210;28;20386;-59
2023/06/28 10:18:43;;;;;;;;;;;;;;;21.86;70.44;101836.53;5102059;28;20274;-60
2023/06/28 10:21:08;;;;;;;;;;;;;;;21.93;72.84;101839.13;5110870;27;20014;-60
2023/06/28 10:23:35;;;;;;;;;;;;;;;21.95;69.07;101837.34;5120384;27;19911;-60
2023/06/28 10:26:02;;;;;;;;;;;;;;;22.02;72.01;101834.72;5116915;27;19963;-58
2023/06/28 10:28:29;;;;;;;;;;;;;;;22.08;70.90;101829.47;5102657;28;19916;-60
2023/06/28 10:30:55;;;;;;;;;;;;;;;22.19;71.42;101835.56;5106307;28;20010;-60
2023/06/28 10:33:23;;;;;;;;;;;;;;;22.23;69.07;101831.19;5115644;28;19985;-59
2023/06/28 10:35:49;;;;;;;;;;;;;;;22.12;68.20;101839.94;5121801;28;19920;-58
2023/06/28 10:38:14;;;;;;;;;;;;;;;22.20;66.01;101830.34;5119823;28;19919;-59
2023/06/28 10:40:39;;;;;;;;;;;;;;;22.19;66.54;101836.44;5095395;28;20290;-58
2023/06/28 10:43:05;;;;;;;;;;;;;;;22.18;65.43;101829.44;5112481;28;19926;-57
2023/06/28 10:45:34;;;;;;;;;;;;;;;22.25;68.05;101830.28;5089555;28;19920;-58
2023/06/28 10:47:59;;;;;;;;;;;;;;;22.42;64.83;101838.06;5097427;28;19923;-58
2023/06/28 10:50:25;;;;;;;;;;;;;;;22.41;64.34;101826.72;5105382;28;19990;-58
2023/06/28 10:52:54;;;;;;;;;;;;;;;22.43;64.49;101827.56;5120550;28;19912;-58
2023/06/28 10:55:20;;;;;;;;;;;;;;;22.55;64.16;101821.38;5113141;28;19912;-58
2023/06/28 10:57:45;;;;;;;;;;;;;;;22.74;64.56;101820.38;5101451;28;19920;-58
2023/06/28 11:00:30;;;;;;;;;;;;;;;22.97;65.98;101822.88;5107214;27;19915;-58
2023/06/28 11:03:03;;;;;;;;;;;;;;;23.21;63.45;101824.41;5114993;27;19962;-59
2023/06/28 11:05:38;;;;;;;;;;;;;;;23.37;62.17;101819.91;5095827;28;19931;-58
2023/06/28 11:08:10;;;;;;;;;;;;;;;23.43;62.89;101814.59;5101070;28;19916;-58
2023/06/28 11:10:39;;;;;;;;;;;;;;;23.55;59.25;101808.34;5098926;28;19912;-58
2023/06/28 11:13:08;;;;;;;;;;;;;;;23.73;61.08;101812.56;5102252;27;19923;-57
2023/06/28 11:15:33;;;;;;;;;;;;;;;23.78;61.91;101795.88;5106177;27;19912;-58
2023/06/28 11:18:20;;;;;;;;;;;;;;;23.88;58.37;101801.84;5099550;28;19922;-58
2023/06/28 11:20:53;;;;;;;;;;;;;;;23.93;62.17;101797.41;5119991;27;19916;-57
2023/06/28 11:23:28;;;;;;;;;;;;;;;24.04;61.38;101799.91;5109478;28;20382;-57
2023/06/28 11:25:57;;;;;;;;;;;;;;;24.01;58.60;101795.56;5097222;28;19927;-57
2023/06/28 11:28:28;;;;;;;;;;;;;;;24.01;60.40;101795.56;5082890;28;20346;-58
2023/06/28 11:30:54;;;;;;;;;;;;;;;24.18;61.89;101791.84;5102359;28;20389;-58
2023/06/28 11:33:20;;;;;;;;;;;;;;;24.45;60.78;101794.13;5082289;28;19919;-58
2023/06/28 11:35:45;;;;;;;;;;;;;;;24.72;60.30;101797.22;5106255;28;19915;-57
2023/06/28 11:38:11;;;;;;;;;;;;;;;24.96;60.14;101790.69;5107160;28;19966;-58
2023/06/28 11:40:36;;;;;;;;;;;;;;;25.08;58.08;101796.63;5102431;28;20434;-57
2023/06/28 11:43:01;;;;;;;;;;;;;;;25.02;56.55;101787.94;5103851;28;20400;-58
2023/06/28 11:45:32;;;;;;;;;;;;;;;25.16;57.40;101801.75;5097734;28;20389;-58
2023/06/28 11:47:57;;;;;;;;;;;;;;;25.33;57.20;101793.56;5095562;28;19977;-57
2023/06/28 11:50:23;;;;;;;;;;;;;;;25.43;57.33;101805.69;5090936;28;19955;-57
2023/06/28 11:52:48;;;;;;;;;;;;;;;25.37;56.88;101800.53;5094882;28;19923;-58
2023/06/28 11:55:14;;;;;;;;;;;;;;;25.30;59.03;101798.88;5093425;28;19923;-57
2023/06/28 11:57:44;;;;;;;;;;;;;;;25.19;56.21;101796.47;5094686;28;19927;-57
2023/06/28 12:00:09;;;;;;;;;;;;;;;25.06;54.45;101795.81;5094753;28;19919;-57
2023/06/28 12:02:45;;;;;;;;;;;;;;;24.99;56.69;101794.13;5102432;28;19916;-57
2023/06/28 12:05:10;;;;;;;;;;;;;;;24.95;57.19;101791.59;5100193;28;19953;-57
2023/06/28 12:07:36;;;;;;;;;;;;;;;24.92;56.20;101791.63;5106842;28;20092;-57
2023/06/28 12:10:01;;;;;;;;;;;;;;;24.98;56.51;101792.38;5109565;28;19915;-57
2023/06/28 12:12:33;;;;;;;;;;;;;;;24.95;56.11;101799.47;5104459;28;19918;-57
2023/06/28 12:14:58;;;;;;;;;;;;;;;24.95;56.60;101796.84;5102442;28;19922;-58
2023/06/28 12:17:24;;;;;;;;;;;;;;;24.90;56.96;101798.69;5092543;28;19920;-60
2023/06/28 12:19:49;;;;;;;;;;;;;;;24.89;56.46;101792.56;5106981;28;19963;-59
2023/06/28 12:22:14;;;;;;;;;;;;;;;24.93;56.92;101799.47;5086658;28;20319;-60
2023/06/28 12:24:40;;;;;;;;;;;;;;;24.89;58.30;101787.28;5103376;28;19920;-60
2023/06/28 12:27:07;;;;;;;;;;;;;;;25.07;58.14;101794.91;5096815;28;20636;-60